sensor_id;sensor_type;location;lat;lon;timestamp;P1;durP1;ratioP1;P2;durP2;ratioP2
40176;SDS011;31511;46.176;9.874;2023-07-20T00:01:53;14.25;;;6.07;;
40176;SDS011;31511;46.176;9.874;2023-07-20T00:04:39;11.20;;;5.72;;
40176;SDS011;31511;46.176;9.874;2023-07-20T00:07:23;11.50;;;6.13;;
40176;SDS011;31511;46.176;9.874;2023-07-20T00:10:08;15.95;;;6.07;;
40176;SDS011;31511;46.176;9.874;2023-07-20T00:12:53;11.68;;;5.55;;
40176;SDS011;31511;46.176;9.874;2023-07-20T00:15:38;15.27;;;6.50;;
40176;SDS011;31511;46.176;9.874;2023-07-20T00:18:23;11.55;;;5.35;;
40176;SDS011;31511;46.176;9.874;2023-07-20T00:21:08;14.35;;;5.13;;
40176;SDS011;31511;46.176;9.874;2023-07-20T00:23:53;10.43;;;6.00;;
40176;SDS011;31511;46.176;9.874;2023-07-20T00:26:37;10.90;;;5.30;;
40176;SDS011;31511;46.176;9.874;2023-07-20T00:29:22;12.85;;;5.40;;
40176;SDS011;31511;46.176;9.874;2023-07-20T00:32:08;14.20;;;5.70;;
40176;SDS011;31511;46.176;9.874;2023-07-20T00:34:53;10.18;;;5.65;;
40176;SDS011;31511;46.176;9.874;2023-07-20T00:37:38;13.55;;;5.95;;
40176;SDS011;31511;46.176;9.874;2023-07-20T00:40:23;10.35;;;5.40;;
40176;SDS011;31511;46.176;9.874;2023-07-20T00:43:07;8.75;;;5.97;;
40176;SDS011;31511;46.176;9.874;2023-07-20T00:45:53;12.68;;;6.10;;
40176;SDS011;31511;46.176;9.874;2023-07-20T00:48:37;10.30;;;4.70;;
40176;SDS011;31511;46.176;9.874;2023-07-20T00:51:22;10.50;;;4.88;;
40176;SDS011;31511;46.176;9.874;2023-07-20T00:54:07;14.52;;;5.78;;
40176;SDS011;31511;46.176;9.874;2023-07-20T00:56:52;13.13;;;6.72;;
40176;SDS011;31511;46.176;9.874;2023-07-20T00:59:37;13.35;;;5.57;;
40176;SDS011;31511;46.176;9.874;2023-07-20T01:02:22;11.02;;;6.22;;
40176;SDS011;31511;46.176;9.874;2023-07-20T01:05:07;9.25;;;5.65;;
40176;SDS011;31511;46.176;9.874;2023-07-20T01:07:53;15.23;;;5.45;;
40176;SDS011;31511;46.176;9.874;2023-07-20T01:10:40;15.35;;;5.40;;
40176;SDS011;31511;46.176;9.874;2023-07-20T01:13:28;12.05;;;4.65;;
40176;SDS011;31511;46.176;9.874;2023-07-20T01:16:13;12.85;;;5.15;;
40176;SDS011;31511;46.176;9.874;2023-07-20T01:18:58;12.55;;;5.20;;
40176;SDS011;31511;46.176;9.874;2023-07-20T01:21:57;6.88;;;4.65;;
40176;SDS011;31511;46.176;9.874;2023-07-20T01:27:45;13.65;;;5.30;;
40176;SDS011;31511;46.176;9.874;2023-07-20T01:30:39;9.75;;;4.50;;
40176;SDS011;31511;46.176;9.874;2023-07-20T01:33:27;11.20;;;5.50;;
40176;SDS011;31511;46.176;9.874;2023-07-20T01:36:14;11.70;;;5.47;;
40176;SDS011;31511;46.176;9.874;2023-07-20T01:39:01;9.80;;;4.95;;
40176;SDS011;31511;46.176;9.874;2023-07-20T01:41:46;12.50;;;5.40;;
40176;SDS011;31511;46.176;9.874;2023-07-20T01:44:31;12.02;;;5.68;;
40176;SDS011;31511;46.176;9.874;2023-07-20T01:47:16;12.73;;;5.68;;
40176;SDS011;31511;46.176;9.874;2023-07-20T01:50:00;13.05;;;4.45;;
40176;SDS011;31511;46.176;9.874;2023-07-20T01:52:45;12.30;;;4.38;;
40176;SDS011;31511;46.176;9.874;2023-07-20T01:55:29;8.23;;;4.85;;
40176;SDS011;31511;46.176;9.874;2023-07-20T01:58:14;10.98;;;5.53;;
40176;SDS011;31511;46.176;9.874;2023-07-20T02:00:59;20.00;;;5.47;;
40176;SDS011;31511;46.176;9.874;2023-07-20T02:03:43;17.27;;;6.35;;
40176;SDS011;31511;46.176;9.874;2023-07-20T02:06:28;16.75;;;6.72;;
40176;SDS011;31511;46.176;9.874;2023-07-20T02:09:12;7.53;;;4.65;;
40176;SDS011;31511;46.176;9.874;2023-07-20T02:11:57;14.35;;;6.10;;
40176;SDS011;31511;46.176;9.874;2023-07-20T02:14:41;15.55;;;5.70;;
40176;SDS011;31511;46.176;9.874;2023-07-20T02:17:26;9.75;;;5.40;;
40176;SDS011;31511;46.176;9.874;2023-07-20T02:20:11;10.75;;;5.13;;
40176;SDS011;31511;46.176;9.874;2023-07-20T02:22:55;8.18;;;4.53;;
40176;SDS011;31511;46.176;9.874;2023-07-20T02:25:40;15.95;;;5.40;;
40176;SDS011;31511;46.176;9.874;2023-07-20T02:28:25;11.85;;;4.90;;
40176;SDS011;31511;46.176;9.874;2023-07-20T02:31:09;10.43;;;5.55;;
40176;SDS011;31511;46.176;9.874;2023-07-20T02:33:54;15.55;;;6.55;;
40176;SDS011;31511;46.176;9.874;2023-07-20T02:36:38;12.50;;;5.82;;
40176;SDS011;31511;46.176;9.874;2023-07-20T02:39:23;13.68;;;5.75;;
40176;SDS011;31511;46.176;9.874;2023-07-20T02:42:07;17.15;;;5.78;;
40176;SDS011;31511;46.176;9.874;2023-07-20T02:44:52;9.40;;;4.93;;
40176;SDS011;31511;46.176;9.874;2023-07-20T02:47:37;13.35;;;5.10;;
40176;SDS011;31511;46.176;9.874;2023-07-20T02:50:21;13.55;;;4.70;;
40176;SDS011;31511;46.176;9.874;2023-07-20T02:53:06;9.40;;;4.80;;
40176;SDS011;31511;46.176;9.874;2023-07-20T02:55:51;10.85;;;4.95;;
40176;SDS011;31511;46.176;9.874;2023-07-20T02:58:35;13.98;;;5.00;;
40176;SDS011;31511;46.176;9.874;2023-07-20T03:01:20;11.95;;;5.60;;
40176;SDS011;31511;46.176;9.874;2023-07-20T03:04:06;11.40;;;5.43;;
40176;SDS011;31511;46.176;9.874;2023-07-20T03:06:51;14.88;;;5.65;;
40176;SDS011;31511;46.176;9.874;2023-07-20T03:09:35;7.78;;;4.60;;
40176;SDS011;31511;46.176;9.874;2023-07-20T03:12:21;10.60;;;5.00;;
40176;SDS011;31511;46.176;9.874;2023-07-20T03:15:06;12.95;;;5.68;;
40176;SDS011;31511;46.176;9.874;2023-07-20T03:17:50;13.13;;;5.38;;
40176;SDS011;31511;46.176;9.874;2023-07-20T03:20:35;14.90;;;5.53;;
40176;SDS011;31511;46.176;9.874;2023-07-20T03:23:20;11.95;;;5.18;;
40176;SDS011;31511;46.176;9.874;2023-07-20T03:26:05;8.77;;;5.07;;
40176;SDS011;31511;46.176;9.874;2023-07-20T03:28:52;13.40;;;6.13;;
40176;SDS011;31511;46.176;9.874;2023-07-20T03:31:36;16.23;;;5.43;;
40176;SDS011;31511;46.176;9.874;2023-07-20T03:34:20;13.65;;;5.10;;
40176;SDS011;31511;46.176;9.874;2023-07-20T03:37:05;11.70;;;4.70;;
40176;SDS011;31511;46.176;9.874;2023-07-20T03:39:50;12.07;;;4.72;;
40176;SDS011;31511;46.176;9.874;2023-07-20T03:42:34;9.90;;;5.13;;
40176;SDS011;31511;46.176;9.874;2023-07-20T03:45:20;8.00;;;4.53;;
40176;SDS011;31511;46.176;9.874;2023-07-20T03:48:07;11.35;;;5.05;;
40176;SDS011;31511;46.176;9.874;2023-07-20T03:50:52;8.98;;;5.13;;
40176;SDS011;31511;46.176;9.874;2023-07-20T03:53:37;15.57;;;5.68;;
40176;SDS011;31511;46.176;9.874;2023-07-20T03:56:22;14.32;;;5.85;;
40176;SDS011;31511;46.176;9.874;2023-07-20T03:59:07;13.77;;;5.25;;
40176;SDS011;31511;46.176;9.874;2023-07-20T04:01:52;12.48;;;5.40;;
40176;SDS011;31511;46.176;9.874;2023-07-20T04:04:36;7.60;;;5.15;;
40176;SDS011;31511;46.176;9.874;2023-07-20T04:07:21;11.40;;;5.20;;
40176;SDS011;31511;46.176;9.874;2023-07-20T04:10:06;13.48;;;5.47;;
40176;SDS011;31511;46.176;9.874;2023-07-20T04:12:50;12.98;;;5.20;;
40176;SDS011;31511;46.176;9.874;2023-07-20T04:15:35;9.20;;;4.70;;
40176;SDS011;31511;46.176;9.874;2023-07-20T04:18:20;12.80;;;6.10;;
40176;SDS011;31511;46.176;9.874;2023-07-20T04:21:05;10.43;;;4.55;;
40176;SDS011;31511;46.176;9.874;2023-07-20T04:23:50;6.03;;;4.70;;
40176;SDS011;31511;46.176;9.874;2023-07-20T04:26:34;10.60;;;5.30;;
40176;SDS011;31511;46.176;9.874;2023-07-20T04:29:19;10.73;;;4.65;;
40176;SDS011;31511;46.176;9.874;2023-07-20T04:32:03;8.30;;;4.88;;
40176;SDS011;31511;46.176;9.874;2023-07-20T04:34:48;9.15;;;5.10;;
40176;SDS011;31511;46.176;9.874;2023-07-20T04:37:33;12.75;;;6.40;;
40176;SDS011;31511;46.176;9.874;2023-07-20T04:40:17;9.25;;;4.85;;
40176;SDS011;31511;46.176;9.874;2023-07-20T04:43:02;13.85;;;4.95;;
40176;SDS011;31511;46.176;9.874;2023-07-20T04:45:46;10.07;;;4.50;;
40176;SDS011;31511;46.176;9.874;2023-07-20T04:48:31;9.50;;;5.22;;
40176;SDS011;31511;46.176;9.874;2023-07-20T04:51:15;8.63;;;5.25;;
40176;SDS011;31511;46.176;9.874;2023-07-20T04:54:04;11.32;;;5.18;;
40176;SDS011;31511;46.176;9.874;2023-07-20T04:56:49;11.35;;;4.80;;
40176;SDS011;31511;46.176;9.874;2023-07-20T04:59:33;12.15;;;5.68;;
40176;SDS011;31511;46.176;9.874;2023-07-20T05:02:18;16.60;;;4.93;;
40176;SDS011;31511;46.176;9.874;2023-07-20T05:05:03;13.30;;;4.68;;
40176;SDS011;31511;46.176;9.874;2023-07-20T05:07:49;14.45;;;5.25;;
40176;SDS011;31511;46.176;9.874;2023-07-20T05:10:34;16.67;;;5.80;;
40176;SDS011;31511;46.176;9.874;2023-07-20T05:13:19;10.05;;;5.35;;
40176;SDS011;31511;46.176;9.874;2023-07-20T05:16:04;11.10;;;5.45;;
40176;SDS011;31511;46.176;9.874;2023-07-20T05:18:49;11.73;;;5.43;;
40176;SDS011;31511;46.176;9.874;2023-07-20T05:21:33;16.02;;;4.97;;
40176;SDS011;31511;46.176;9.874;2023-07-20T05:24:18;8.90;;;5.13;;
40176;SDS011;31511;46.176;9.874;2023-07-20T05:27:02;9.27;;;5.35;;
40176;SDS011;31511;46.176;9.874;2023-07-20T05:29:47;10.85;;;5.20;;
40176;SDS011;31511;46.176;9.874;2023-07-20T05:32:32;13.32;;;4.75;;
40176;SDS011;31511;46.176;9.874;2023-07-20T05:35:17;12.50;;;5.45;;
40176;SDS011;31511;46.176;9.874;2023-07-20T05:38:02;12.68;;;5.53;;
40176;SDS011;31511;46.176;9.874;2023-07-20T05:40:48;10.57;;;5.20;;
40176;SDS011;31511;46.176;9.874;2023-07-20T05:43:33;10.23;;;5.40;;
40176;SDS011;31511;46.176;9.874;2023-07-20T05:46:18;10.40;;;5.78;;
40176;SDS011;31511;46.176;9.874;2023-07-20T05:49:03;16.02;;;5.32;;
40176;SDS011;31511;46.176;9.874;2023-07-20T05:51:47;12.25;;;5.40;;
40176;SDS011;31511;46.176;9.874;2023-07-20T05:54:32;10.05;;;5.32;;
40176;SDS011;31511;46.176;9.874;2023-07-20T05:57:16;13.00;;;5.72;;
40176;SDS011;31511;46.176;9.874;2023-07-20T06:00:01;11.80;;;5.10;;
40176;SDS011;31511;46.176;9.874;2023-07-20T06:02:46;18.23;;;5.57;;
40176;SDS011;31511;46.176;9.874;2023-07-20T06:05:31;10.80;;;5.65;;
40176;SDS011;31511;46.176;9.874;2023-07-20T06:08:16;8.95;;;5.00;;
40176;SDS011;31511;46.176;9.874;2023-07-20T06:11:01;12.23;;;5.75;;
40176;SDS011;31511;46.176;9.874;2023-07-20T06:13:47;8.15;;;4.78;;
40176;SDS011;31511;46.176;9.874;2023-07-20T06:16:31;11.75;;;5.95;;
40176;SDS011;31511;46.176;9.874;2023-07-20T06:19:16;18.65;;;5.90;;
40176;SDS011;31511;46.176;9.874;2023-07-20T06:22:00;10.70;;;4.97;;
40176;SDS011;31511;46.176;9.874;2023-07-20T06:24:45;10.05;;;5.18;;
40176;SDS011;31511;46.176;9.874;2023-07-20T06:27:30;11.63;;;4.50;;
40176;SDS011;31511;46.176;9.874;2023-07-20T06:30:15;7.30;;;4.68;;
40176;SDS011;31511;46.176;9.874;2023-07-20T06:32:59;11.40;;;4.78;;
40176;SDS011;31511;46.176;9.874;2023-07-20T06:35:44;9.63;;;4.97;;
40176;SDS011;31511;46.176;9.874;2023-07-20T06:38:28;10.15;;;5.07;;
40176;SDS011;31511;46.176;9.874;2023-07-20T06:41:13;10.82;;;4.80;;
40176;SDS011;31511;46.176;9.874;2023-07-20T06:43:57;13.98;;;5.40;;
40176;SDS011;31511;46.176;9.874;2023-07-20T06:46:42;9.23;;;4.65;;
40176;SDS011;31511;46.176;9.874;2023-07-20T06:49:26;12.10;;;5.70;;
40176;SDS011;31511;46.176;9.874;2023-07-20T06:52:11;9.63;;;4.82;;
40176;SDS011;31511;46.176;9.874;2023-07-20T06:54:56;11.35;;;4.53;;
40176;SDS011;31511;46.176;9.874;2023-07-20T06:57:40;10.48;;;5.70;;
40176;SDS011;31511;46.176;9.874;2023-07-20T07:00:25;12.77;;;4.43;;
40176;SDS011;31511;46.176;9.874;2023-07-20T07:03:09;11.27;;;5.82;;
40176;SDS011;31511;46.176;9.874;2023-07-20T07:05:55;12.05;;;5.25;;
40176;SDS011;31511;46.176;9.874;2023-07-20T07:08:40;9.65;;;4.72;;
40176;SDS011;31511;46.176;9.874;2023-07-20T07:11:26;13.82;;;5.25;;
40176;SDS011;31511;46.176;9.874;2023-07-20T07:14:11;9.80;;;4.78;;
40176;SDS011;31511;46.176;9.874;2023-07-20T07:16:56;10.15;;;4.93;;
40176;SDS011;31511;46.176;9.874;2023-07-20T07:19:41;7.22;;;4.18;;
40176;SDS011;31511;46.176;9.874;2023-07-20T07:22:26;9.55;;;5.20;;
40176;SDS011;31511;46.176;9.874;2023-07-20T07:25:10;7.40;;;4.25;;
40176;SDS011;31511;46.176;9.874;2023-07-20T07:27:55;12.88;;;5.72;;
40176;SDS011;31511;46.176;9.874;2023-07-20T07:30:40;10.13;;;5.45;;
40176;SDS011;31511;46.176;9.874;2023-07-20T07:33:25;9.32;;;5.82;;
40176;SDS011;31511;46.176;9.874;2023-07-20T07:36:11;11.70;;;5.70;;
40176;SDS011;31511;46.176;9.874;2023-07-20T07:38:56;13.43;;;6.00;;
40176;SDS011;31511;46.176;9.874;2023-07-20T07:41:41;13.35;;;4.85;;
40176;SDS011;31511;46.176;9.874;2023-07-20T07:44:25;8.52;;;5.25;;
40176;SDS011;31511;46.176;9.874;2023-07-20T07:47:10;10.38;;;5.15;;
40176;SDS011;31511;46.176;9.874;2023-07-20T07:49:56;6.70;;;4.38;;
40176;SDS011;31511;46.176;9.874;2023-07-20T07:52:41;7.32;;;4.43;;
40176;SDS011;31511;46.176;9.874;2023-07-20T07:55:25;8.48;;;4.53;;
40176;SDS011;31511;46.176;9.874;2023-07-20T07:58:10;9.05;;;4.43;;
40176;SDS011;31511;46.176;9.874;2023-07-20T08:00:54;8.02;;;4.68;;
40176;SDS011;31511;46.176;9.874;2023-07-20T08:03:39;9.50;;;5.30;;
40176;SDS011;31511;46.176;9.874;2023-07-20T08:06:23;9.05;;;5.20;;
40176;SDS011;31511;46.176;9.874;2023-07-20T08:09:09;10.30;;;5.03;;
40176;SDS011;31511;46.176;9.874;2023-07-20T08:11:53;12.50;;;4.65;;
40176;SDS011;31511;46.176;9.874;2023-07-20T08:14:38;18.02;;;5.65;;
40176;SDS011;31511;46.176;9.874;2023-07-20T08:17:23;7.25;;;4.70;;
40176;SDS011;31511;46.176;9.874;2023-07-20T08:20:08;8.68;;;5.40;;
40176;SDS011;31511;46.176;9.874;2023-07-20T08:22:56;9.30;;;5.03;;
40176;SDS011;31511;46.176;9.874;2023-07-20T08:25:42;7.95;;;4.95;;
40176;SDS011;31511;46.176;9.874;2023-07-20T08:28:27;7.95;;;4.50;;
40176;SDS011;31511;46.176;9.874;2023-07-20T08:31:13;6.68;;;4.55;;
40176;SDS011;31511;46.176;9.874;2023-07-20T08:33:57;6.70;;;4.03;;
40176;SDS011;31511;46.176;9.874;2023-07-20T08:36:42;9.27;;;4.80;;
40176;SDS011;31511;46.176;9.874;2023-07-20T08:39:26;8.57;;;5.50;;
40176;SDS011;31511;46.176;9.874;2023-07-20T08:42:11;6.38;;;4.22;;
40176;SDS011;31511;46.176;9.874;2023-07-20T08:44:56;9.80;;;4.68;;
40176;SDS011;31511;46.176;9.874;2023-07-20T08:47:41;8.93;;;3.97;;
40176;SDS011;31511;46.176;9.874;2023-07-20T08:50:28;7.50;;;4.30;;
40176;SDS011;31511;46.176;9.874;2023-07-20T08:53:14;8.18;;;4.88;;
40176;SDS011;31511;46.176;9.874;2023-07-20T08:55:59;8.32;;;4.95;;
40176;SDS011;31511;46.176;9.874;2023-07-20T08:58:44;12.20;;;4.43;;
40176;SDS011;31511;46.176;9.874;2023-07-20T09:01:29;10.65;;;5.30;;
40176;SDS011;31511;46.176;9.874;2023-07-20T09:04:13;7.75;;;5.18;;
40176;SDS011;31511;46.176;9.874;2023-07-20T09:06:58;7.15;;;4.60;;
40176;SDS011;31511;46.176;9.874;2023-07-20T09:09:43;8.10;;;5.30;;
40176;SDS011;31511;46.176;9.874;2023-07-20T09:12:27;6.38;;;4.60;;
40176;SDS011;31511;46.176;9.874;2023-07-20T09:15:12;10.05;;;5.05;;
40176;SDS011;31511;46.176;9.874;2023-07-20T09:17:58;8.20;;;4.60;;
40176;SDS011;31511;46.176;9.874;2023-07-20T09:20:45;9.00;;;4.50;;
40176;SDS011;31511;46.176;9.874;2023-07-20T09:23:31;10.50;;;4.53;;
40176;SDS011;31511;46.176;9.874;2023-07-20T09:26:15;7.20;;;4.10;;
40176;SDS011;31511;46.176;9.874;2023-07-20T09:29:00;9.80;;;4.60;;
40176;SDS011;31511;46.176;9.874;2023-07-20T09:32:19;5.93;;;4.60;;
40176;SDS011;31511;46.176;9.874;2023-07-20T09:34:56;8.98;;;4.28;;
40176;SDS011;31511;46.176;9.874;2023-07-20T09:37:52;8.63;;;5.20;;
40176;SDS011;31511;46.176;9.874;2023-07-20T09:40:37;7.90;;;4.30;;
40176;SDS011;31511;46.176;9.874;2023-07-20T09:43:23;8.68;;;4.50;;
40176;SDS011;31511;46.176;9.874;2023-07-20T09:46:07;17.70;;;4.82;;
40176;SDS011;31511;46.176;9.874;2023-07-20T09:48:52;22.30;;;5.55;;
40176;SDS011;31511;46.176;9.874;2023-07-20T09:51:40;12.57;;;5.28;;
40176;SDS011;31511;46.176;9.874;2023-07-20T09:54:26;8.63;;;4.30;;
40176;SDS011;31511;46.176;9.874;2023-07-20T09:57:11;9.43;;;4.55;;
40176;SDS011;31511;46.176;9.874;2023-07-20T09:59:57;8.85;;;4.57;;
40176;SDS011;31511;46.176;9.874;2023-07-20T10:02:44;5.35;;;4.18;;
40176;SDS011;31511;46.176;9.874;2023-07-20T10:05:31;10.85;;;4.85;;
40176;SDS011;31511;46.176;9.874;2023-07-20T10:08:17;8.55;;;4.43;;
40176;SDS011;31511;46.176;9.874;2023-07-20T10:11:03;9.02;;;4.28;;
40176;SDS011;31511;46.176;9.874;2023-07-20T10:13:49;8.02;;;4.05;;
40176;SDS011;31511;46.176;9.874;2023-07-20T10:16:35;6.78;;;4.20;;
40176;SDS011;31511;46.176;9.874;2023-07-20T10:22:19;6.72;;;4.13;;
40176;SDS011;31511;46.176;9.874;2023-07-20T10:25:04;7.15;;;4.15;;
40176;SDS011;31511;46.176;9.874;2023-07-20T10:27:49;7.82;;;4.40;;
40176;SDS011;31511;46.176;9.874;2023-07-20T10:30:34;8.50;;;3.55;;
40176;SDS011;31511;46.176;9.874;2023-07-20T10:33:19;8.32;;;4.18;;
40176;SDS011;31511;46.176;9.874;2023-07-20T10:36:05;6.15;;;4.03;;
40176;SDS011;31511;46.176;9.874;2023-07-20T10:38:53;9.18;;;4.28;;
40176;SDS011;31511;46.176;9.874;2023-07-20T10:41:39;7.72;;;4.35;;
40176;SDS011;31511;46.176;9.874;2023-07-20T10:44:24;6.95;;;4.32;;
40176;SDS011;31511;46.176;9.874;2023-07-20T10:47:09;6.10;;;4.47;;
40176;SDS011;31511;46.176;9.874;2023-07-20T10:49:57;5.55;;;3.70;;
40176;SDS011;31511;46.176;9.874;2023-07-20T10:52:42;6.63;;;4.20;;
40176;SDS011;31511;46.176;9.874;2023-07-20T10:55:26;6.55;;;3.78;;
40176;SDS011;31511;46.176;9.874;2023-07-20T10:58:14;8.98;;;4.00;;
40176;SDS011;31511;46.176;9.874;2023-07-20T11:01:00;6.07;;;4.25;;
40176;SDS011;31511;46.176;9.874;2023-07-20T11:03:49;8.82;;;4.55;;
40176;SDS011;31511;46.176;9.874;2023-07-20T11:06:38;6.97;;;4.25;;
40176;SDS011;31511;46.176;9.874;2023-07-20T11:09:33;6.80;;;4.20;;
40176;SDS011;31511;46.176;9.874;2023-07-20T11:12:18;7.93;;;4.70;;
40176;SDS011;31511;46.176;9.874;2023-07-20T11:15:03;7.32;;;4.18;;
40176;SDS011;31511;46.176;9.874;2023-07-20T11:17:48;9.32;;;3.70;;
40176;SDS011;31511;46.176;9.874;2023-07-20T11:20:32;8.68;;;4.95;;
40176;SDS011;31511;46.176;9.874;2023-07-20T11:23:17;11.30;;;4.28;;
40176;SDS011;31511;46.176;9.874;2023-07-20T11:26:01;9.88;;;4.05;;
40176;SDS011;31511;46.176;9.874;2023-07-20T11:28:48;7.55;;;4.55;;
40176;SDS011;31511;46.176;9.874;2023-07-20T11:31:40;6.50;;;4.20;;
40176;SDS011;31511;46.176;9.874;2023-07-20T11:34:25;6.55;;;4.03;;
40176;SDS011;31511;46.176;9.874;2023-07-20T11:37:11;8.38;;;4.63;;
40176;SDS011;31511;46.176;9.874;2023-07-20T11:39:56;5.40;;;4.32;;
40176;SDS011;31511;46.176;9.874;2023-07-20T11:42:41;9.30;;;4.60;;
40176;SDS011;31511;46.176;9.874;2023-07-20T11:45:25;9.50;;;5.00;;
40176;SDS011;31511;46.176;9.874;2023-07-20T11:48:14;6.15;;;4.00;;
40176;SDS011;31511;46.176;9.874;2023-07-20T11:50:59;7.35;;;4.70;;
40176;SDS011;31511;46.176;9.874;2023-07-20T11:53:44;11.13;;;4.43;;
40176;SDS011;31511;46.176;9.874;2023-07-20T11:56:29;5.38;;;4.28;;
40176;SDS011;31511;46.176;9.874;2023-07-20T11:59:14;7.15;;;4.32;;
40176;SDS011;31511;46.176;9.874;2023-07-20T12:02:02;7.22;;;4.50;;
40176;SDS011;31511;46.176;9.874;2023-07-20T12:04:47;7.55;;;3.70;;
40176;SDS011;31511;46.176;9.874;2023-07-20T12:07:34;5.80;;;4.22;;
40176;SDS011;31511;46.176;9.874;2023-07-20T12:10:26;10.85;;;4.25;;
40176;SDS011;31511;46.176;9.874;2023-07-20T12:13:12;5.25;;;3.85;;
40176;SDS011;31511;46.176;9.874;2023-07-20T12:15:56;4.85;;;3.65;;
40176;SDS011;31511;46.176;9.874;2023-07-20T12:18:50;6.88;;;4.50;;
40176;SDS011;31511;46.176;9.874;2023-07-20T12:21:43;8.77;;;4.63;;
40176;SDS011;31511;46.176;9.874;2023-07-20T12:24:27;6.63;;;4.25;;
40176;SDS011;31511;46.176;9.874;2023-07-20T12:27:13;8.93;;;4.63;;
40176;SDS011;31511;46.176;9.874;2023-07-20T12:29:59;7.53;;;5.10;;
40176;SDS011;31511;46.176;9.874;2023-07-20T12:32:44;8.48;;;4.32;;
40176;SDS011;31511;46.176;9.874;2023-07-20T12:35:29;10.38;;;4.15;;
40176;SDS011;31511;46.176;9.874;2023-07-20T12:38:14;9.07;;;4.53;;
40176;SDS011;31511;46.176;9.874;2023-07-20T12:41:02;6.88;;;3.90;;
40176;SDS011;31511;46.176;9.874;2023-07-20T12:43:47;12.77;;;5.00;;
40176;SDS011;31511;46.176;9.874;2023-07-20T12:46:33;8.80;;;4.57;;
40176;SDS011;31511;46.176;9.874;2023-07-20T12:49:20;8.52;;;4.07;;
40176;SDS011;31511;46.176;9.874;2023-07-20T12:52:04;7.68;;;4.72;;
40176;SDS011;31511;46.176;9.874;2023-07-20T12:54:49;8.35;;;4.30;;
40176;SDS011;31511;46.176;9.874;2023-07-20T12:57:35;4.78;;;3.33;;
40176;SDS011;31511;46.176;9.874;2023-07-20T13:00:20;7.55;;;4.40;;
40176;SDS011;31511;46.176;9.874;2023-07-20T13:03:08;9.73;;;4.68;;
40176;SDS011;31511;46.176;9.874;2023-07-20T13:05:52;8.80;;;4.47;;
40176;SDS011;31511;46.176;9.874;2023-07-20T13:08:37;10.27;;;4.03;;
40176;SDS011;31511;46.176;9.874;2023-07-20T13:11:21;5.32;;;4.13;;
40176;SDS011;31511;46.176;9.874;2023-07-20T13:14:06;6.32;;;4.20;;
40176;SDS011;31511;46.176;9.874;2023-07-20T13:16:50;9.48;;;4.13;;
40176;SDS011;31511;46.176;9.874;2023-07-20T13:19:35;9.20;;;3.80;;
40176;SDS011;31511;46.176;9.874;2023-07-20T13:22:19;7.88;;;4.53;;
40176;SDS011;31511;46.176;9.874;2023-07-20T13:25:04;14.75;;;4.82;;
40176;SDS011;31511;46.176;9.874;2023-07-20T13:27:49;12.57;;;4.75;;
40176;SDS011;31511;46.176;9.874;2023-07-20T13:30:34;7.70;;;4.35;;
40176;SDS011;31511;46.176;9.874;2023-07-20T13:33:18;8.00;;;5.43;;
40176;SDS011;31511;46.176;9.874;2023-07-20T13:36:03;5.55;;;4.35;;
40176;SDS011;31511;46.176;9.874;2023-07-20T13:38:49;8.50;;;4.35;;
40176;SDS011;31511;46.176;9.874;2023-07-20T13:41:34;9.90;;;4.70;;
40176;SDS011;31511;46.176;9.874;2023-07-20T13:44:19;11.85;;;4.55;;
40176;SDS011;31511;46.176;9.874;2023-07-20T13:47:04;8.32;;;4.72;;
40176;SDS011;31511;46.176;9.874;2023-07-20T13:49:49;10.52;;;4.28;;
40176;SDS011;31511;46.176;9.874;2023-07-20T13:52:33;7.57;;;3.95;;
40176;SDS011;31511;46.176;9.874;2023-07-20T13:55:18;7.80;;;4.35;;
40176;SDS011;31511;46.176;9.874;2023-07-20T13:58:03;5.82;;;4.35;;
40176;SDS011;31511;46.176;9.874;2023-07-20T14:00:48;8.23;;;3.80;;
40176;SDS011;31511;46.176;9.874;2023-07-20T14:03:32;6.05;;;3.75;;
40176;SDS011;31511;46.176;9.874;2023-07-20T14:06:17;5.82;;;3.55;;
40176;SDS011;31511;46.176;9.874;2023-07-20T14:09:02;5.40;;;4.07;;
40176;SDS011;31511;46.176;9.874;2023-07-20T14:11:47;6.15;;;3.22;;
40176;SDS011;31511;46.176;9.874;2023-07-20T14:14:31;5.40;;;3.60;;
40176;SDS011;31511;46.176;9.874;2023-07-20T14:17:16;8.25;;;3.97;;
40176;SDS011;31511;46.176;9.874;2023-07-20T14:20:01;6.88;;;3.40;;
40176;SDS011;31511;46.176;9.874;2023-07-20T14:22:49;7.35;;;4.25;;
40176;SDS011;31511;46.176;9.874;2023-07-20T14:25:34;7.82;;;3.75;;
40176;SDS011;31511;46.176;9.874;2023-07-20T14:28:18;8.02;;;4.03;;
40176;SDS011;31511;46.176;9.874;2023-07-20T14:31:03;7.50;;;3.58;;
40176;SDS011;31511;46.176;9.874;2023-07-20T14:33:48;5.65;;;3.80;;
40176;SDS011;31511;46.176;9.874;2023-07-20T14:36:33;7.38;;;4.28;;
40176;SDS011;31511;46.176;9.874;2023-07-20T14:39:17;8.10;;;3.67;;
40176;SDS011;31511;46.176;9.874;2023-07-20T14:42:03;4.97;;;3.55;;
40176;SDS011;31511;46.176;9.874;2023-07-20T14:44:48;9.50;;;4.22;;
40176;SDS011;31511;46.176;9.874;2023-07-20T14:47:32;7.20;;;4.60;;
40176;SDS011;31511;46.176;9.874;2023-07-20T14:50:18;7.65;;;4.10;;
40176;SDS011;31511;46.176;9.874;2023-07-20T14:53:04;9.00;;;4.07;;
40176;SDS011;31511;46.176;9.874;2023-07-20T14:55:48;9.80;;;4.72;;
40176;SDS011;31511;46.176;9.874;2023-07-20T14:58:33;6.75;;;3.53;;
40176;SDS011;31511;46.176;9.874;2023-07-20T15:01:17;6.70;;;3.55;;
40176;SDS011;31511;46.176;9.874;2023-07-20T15:04:02;7.22;;;4.22;;
40176;SDS011;31511;46.176;9.874;2023-07-20T15:06:46;7.32;;;3.78;;
40176;SDS011;31511;46.176;9.874;2023-07-20T15:09:31;6.18;;;3.72;;
40176;SDS011;31511;46.176;9.874;2023-07-20T15:12:17;9.35;;;4.00;;
40176;SDS011;31511;46.176;9.874;2023-07-20T15:17:52;6.82;;;3.63;;
40176;SDS011;31511;46.176;9.874;2023-07-20T15:20:38;10.38;;;3.83;;
40176;SDS011;31511;46.176;9.874;2023-07-20T15:23:23;7.28;;;4.07;;
40176;SDS011;31511;46.176;9.874;2023-07-20T15:26:07;9.43;;;4.47;;
40176;SDS011;31511;46.176;9.874;2023-07-20T15:28:52;8.82;;;4.40;;
40176;SDS011;31511;46.176;9.874;2023-07-20T15:31:36;5.80;;;3.83;;
40176;SDS011;31511;46.176;9.874;2023-07-20T15:34:21;7.60;;;4.47;;
40176;SDS011;31511;46.176;9.874;2023-07-20T15:37:06;5.45;;;4.32;;
40176;SDS011;31511;46.176;9.874;2023-07-20T15:39:50;6.55;;;4.18;;
40176;SDS011;31511;46.176;9.874;2023-07-20T15:42:35;10.27;;;4.97;;
40176;SDS011;31511;46.176;9.874;2023-07-20T15:45:20;11.55;;;4.68;;
40176;SDS011;31511;46.176;9.874;2023-07-20T15:48:05;6.55;;;4.10;;
40176;SDS011;31511;46.176;9.874;2023-07-20T15:50:50;7.47;;;4.18;;
40176;SDS011;31511;46.176;9.874;2023-07-20T15:53:35;8.55;;;4.82;;
40176;SDS011;31511;46.176;9.874;2023-07-20T15:56:21;10.52;;;4.53;;
40176;SDS011;31511;46.176;9.874;2023-07-20T15:59:06;8.18;;;4.20;;
40176;SDS011;31511;46.176;9.874;2023-07-20T16:01:50;12.90;;;4.60;;
40176;SDS011;31511;46.176;9.874;2023-07-20T16:04:35;6.43;;;4.53;;
40176;SDS011;31511;46.176;9.874;2023-07-20T16:07:20;7.18;;;4.38;;
40176;SDS011;31511;46.176;9.874;2023-07-20T16:10:04;5.40;;;4.25;;
40176;SDS011;31511;46.176;9.874;2023-07-20T16:12:52;9.57;;;4.85;;
40176;SDS011;31511;46.176;9.874;2023-07-20T16:15:36;9.38;;;4.65;;
40176;SDS011;31511;46.176;9.874;2023-07-20T16:18:21;8.20;;;5.60;;
40176;SDS011;31511;46.176;9.874;2023-07-20T16:21:06;6.00;;;4.57;;
40176;SDS011;31511;46.176;9.874;2023-07-20T16:23:51;7.93;;;4.22;;
40176;SDS011;31511;46.176;9.874;2023-07-20T16:26:35;10.70;;;4.80;;
40176;SDS011;31511;46.176;9.874;2023-07-20T16:29:20;5.85;;;4.43;;
40176;SDS011;31511;46.176;9.874;2023-07-20T16:32:07;9.73;;;5.35;;
40176;SDS011;31511;46.176;9.874;2023-07-20T16:34:52;11.95;;;6.32;;
40176;SDS011;31511;46.176;9.874;2023-07-20T16:37:37;7.63;;;4.82;;